Time;durP1;ratioP1;P1;durP2;ratioP2;P2;SDS_P1;SDS_P2;PMS_P1;PMS_P2;Temp;Humidity;BMP_temperature;BMP_pressure;BME280_temperature;BME280_humidity;BME280_pressure;Samples;Min_cycle;Max_cycle;Signal;HPM_P1;HPM_P2
2022/05/03 00:01:00;;;;;;;;;;;;;;;14.45;57.52;101464.56;4446791;32;19992;-71
2022/05/03 00:03:27;;;;;;;;;;;;;;;14.52;57.73;101465.16;4438111;32;19988;-71
2022/05/03 00:08:38;;;;;;;;;;;;;;;14.26;57.86;101469.09;3966773;31;15717863;-70
2022/05/03 00:13:43;;;;;;;;;;;;;;;14.47;57.08;101454.34;3950498;32;15723234;-71
2022/05/03 00:16:12;;;;;;;;;;;;;;;14.47;57.08;101454.34;4429188;32;19972;-71
2022/05/03 00:18:38;;;;;;;;;;;;;;;14.25;57.74;101450.53;4414579;32;19996;-71
2022/05/03 00:21:04;;;;;;;;;;;;;;;14.30;58.13;101454.88;4427703;32;20015;-70
2022/05/03 00:23:31;;;;;;;;;;;;;;;14.25;58.55;101455.41;4427007;32;20001;-71
2022/05/03 00:25:57;;;;;;;;;;;;;;;14.21;58.48;101455.47;4428567;32;20082;-71
2022/05/03 00:28:23;;;;;;;;;;;;;;;14.15;58.65;101456.47;4429153;32;19974;-70
2022/05/03 00:30:49;;;;;;;;;;;;;;;14.19;58.23;101452.28;4429278;32;20008;-70
2022/05/03 00:33:15;;;;;;;;;;;;;;;14.26;58.05;101454.19;4429423;32;20012;-70
2022/05/03 00:35:42;;;;;;;;;;;;;;;14.30;58.28;101454.88;4430652;32;20270;-70
2022/05/03 00:38:08;;;;;;;;;;;;;;;14.26;58.39;101457.78;4431110;32;19996;-70
2022/05/03 00:40:34;;;;;;;;;;;;;;;14.27;58.84;101459.41;4428841;32;20020;-70
2022/05/03 00:45:42;;;;;;;;;;;;;;;14.11;58.92;101464.25;3939354;32;15730411;-70
2022/05/03 00:48:28;;;;;;;;;;;;;;;14.12;59.06;101457.34;4415237;32;20645;-70
2022/05/03 00:53:34;;;;;;;;;;;;;;;14.49;60.44;101462.41;3949627;32;15723577;-70
2022/05/03 00:56:14;;;;;;;;;;;;;;;14.49;60.44;101462.41;4432319;32;20353;-70
2022/05/03 00:58:59;;;;;;;;;;;;;;;14.12;61.06;101458.16;4432101;32;19965;-70
2022/05/03 01:04:21;;;;;;;;;;;;;;;14.46;61.89;101446.31;3961117;31;15720207;-70
2022/05/03 01:06:56;;;;;;;;;;;;;;;14.46;61.89;101446.31;4431353;32;19969;-70
2022/05/03 01:09:26;;;;;;;;;;;;;;;13.98;62.65;101444.38;4432094;32;19949;-70
2022/05/03 01:11:57;;;;;;;;;;;;;;;13.87;63.02;101443.87;4430320;32;20689;-70
2022/05/03 01:14:42;;;;;;;;;;;;;;;13.83;63.74;101445.97;4433720;32;19995;-70
2022/05/03 01:17:14;;;;;;;;;;;;;;;13.85;64.23;101432.19;4432133;32;20017;-70
2022/05/03 01:19:49;;;;;;;;;;;;;;;13.85;63.91;101435.84;4432671;32;19993;-70
2022/05/03 01:22:35;;;;;;;;;;;;;;;13.72;64.20;101439.81;4429883;32;19969;-69
2022/05/03 01:25:21;;;;;;;;;;;;;;;13.62;63.60;101444.50;4432525;32;20021;-69
2022/05/03 01:30:28;;;;;;;;;;;;;;;14.26;63.65;101440.78;3952373;32;15725484;-70
2022/05/03 01:32:57;;;;;;;;;;;;;;;14.26;63.65;101440.78;4430940;32;19965;-70
2022/05/03 01:35:23;;;;;;;;;;;;;;;14.29;62.41;101442.72;4436012;32;19962;-70
2022/05/03 01:38:03;;;;;;;;;;;;;;;14.21;62.43;101438.50;4432852;32;20012;-70
2022/05/03 01:40:37;;;;;;;;;;;;;;;14.48;61.48;101446.66;4434278;32;19961;-70
2022/05/03 01:51:25;;;;;;;;;;;;;;;14.77;59.44;101450.25;3956405;32;15722591;-70
2022/05/03 01:53:56;;;;;;;;;;;;;;;14.77;59.44;101450.25;4441347;32;20392;-70
2022/05/03 01:56:29;;;;;;;;;;;;;;;14.42;59.90;101446.41;4441240;32;19987;-70
2022/05/03 02:04:30;;;;;;;;;;;;;;;14.73;58.43;101444.66;3951797;32;15721535;-70
2022/05/03 02:09:55;;;;;;;;;;;;;;;14.94;57.75;101440.41;3950810;32;15723302;-70
2022/05/03 02:12:21;;;;;;;;;;;;;;;14.94;57.75;101440.41;4434257;32;20493;-69
2022/05/03 02:14:50;;;;;;;;;;;;;;;14.33;58.80;101440.59;4433705;32;19997;-69
2022/05/03 02:23:02;;;;;;;;;;;;;;;14.53;58.42;101429.09;3951144;32;15726616;-70
2022/05/03 02:28:30;;;;;;;;;;;;;;;14.17;58.83;101434.94;3951630;32;15726517;-70
2022/05/03 02:30:59;;;;;;;;;;;;;;;14.17;58.83;101434.94;4428965;32;20017;-70
2022/05/03 02:33:28;;;;;;;;;;;;;;;13.41;60.04;101428.06;4429666;32;20071;-70
2022/05/03 02:35:55;;;;;;;;;;;;;;;13.43;60.78;101424.78;4429081;32;20319;-70
2022/05/03 02:38:24;;;;;;;;;;;;;;;13.56;60.81;101420.81;4430698;32;20001;-70
2022/05/03 02:40:52;;;;;;;;;;;;;;;13.59;60.62;101424.78;4429592;32;20108;-70
2022/05/03 02:43:17;;;;;;;;;;;;;;;13.68;60.96;101419.28;4426964;32;19977;-70
2022/05/03 02:45:50;;;;;;;;;;;;;;;13.71;60.44;101426.91;4428333;32;20371;-70
2022/05/03 02:48:21;;;;;;;;;;;;;;;13.67;60.68;101423.37;4431561;32;19997;-70
2022/05/03 02:56:07;;;;;;;;;;;;;;;14.21;59.79;101427.19;3950801;32;15723092;-70
2022/05/03 03:03:59;;;;;;;;;;;;;;;14.19;60.00;101423.19;3952255;32;15724482;-70
2022/05/03 03:06:30;;;;;;;;;;;;;;;14.19;60.00;101423.19;4428988;32;19986;-70
2022/05/03 03:08:57;;;;;;;;;;;;;;;13.87;60.62;101418.41;4426545;32;19961;-70
2022/05/03 03:11:30;;;;;;;;;;;;;;;13.55;60.58;101422.06;4429171;32;20330;-70
2022/05/03 03:14:05;;;;;;;;;;;;;;;13.62;60.06;101413.37;4426599;32;19961;-70
2022/05/03 03:16:32;;;;;;;;;;;;;;;13.57;60.03;101425.22;4427240;32;20672;-70
2022/05/03 03:18:58;;;;;;;;;;;;;;;13.50;60.51;101416.94;4427499;32;19954;-70
2022/05/03 03:21:30;;;;;;;;;;;;;;;13.52;60.67;101419.31;4425573;32;20001;-70
2022/05/03 03:23:56;;;;;;;;;;;;;;;13.53;60.70;101418.88;4427374;32;19980;-70
2022/05/03 03:26:22;;;;;;;;;;;;;;;13.43;62.05;101419.13;4426808;32;20073;-69
2022/05/03 03:28:49;;;;;;;;;;;;;;;13.34;61.55;101418.97;4427479;32;20166;-69
2022/05/03 03:31:15;;;;;;;;;;;;;;;13.31;62.39;101415.00;4425643;32;20059;-69
2022/05/03 03:33:41;;;;;;;;;;;;;;;13.20;64.22;101419.31;4425570;32;19961;-69
2022/05/03 03:36:07;;;;;;;;;;;;;;;13.21;64.14;101418.88;4425920;32;20373;-68
2022/05/03 03:38:36;;;;;;;;;;;;;;;13.07;65.52;101410.72;4427701;32;19997;-68
2022/05/03 03:41:03;;;;;;;;;;;;;;;13.11;65.11;101416.31;4428504;32;19972;-68
2022/05/03 03:43:29;;;;;;;;;;;;;;;13.54;63.62;101419.69;4414052;32;20378;-68
2022/05/03 03:45:55;;;;;;;;;;;;;;;13.69;63.45;101418.84;4427374;32;19976;-68
2022/05/03 03:48:20;;;;;;;;;;;;;;;13.68;64.17;101408.78;4430931;32;19978;-68
2022/05/03 03:50:47;;;;;;;;;;;;;;;13.60;63.83;101409.44;4429912;32;20007;-67
2022/05/03 03:53:14;;;;;;;;;;;;;;;13.05;66.70;101413.22;4430802;32;19961;-68
2022/05/03 03:55:42;;;;;;;;;;;;;;;12.88;67.45;101414.38;4430130;32;19950;-67
2022/05/03 03:58:09;;;;;;;;;;;;;;;12.80;67.24;101412.16;4431821;32;19996;-68
2022/05/03 04:00:35;;;;;;;;;;;;;;;12.76;67.28;101409.41;4430459;32;19993;-68
2022/05/03 04:03:01;;;;;;;;;;;;;;;12.77;67.42;101411.00;4424820;32;19953;-67
2022/05/03 04:05:27;;;;;;;;;;;;;;;12.76;67.30;101406.56;4427049;32;19953;-67
2022/05/03 04:07:52;;;;;;;;;;;;;;;12.57;65.91;101404.56;4424822;32;19968;-67
2022/05/03 04:10:19;;;;;;;;;;;;;;;12.64;67.06;101403.66;4425010;32;20024;-68
2022/05/03 04:12:46;;;;;;;;;;;;;;;13.00;66.17;101413.72;4426576;32;20016;-68
2022/05/03 04:15:12;;;;;;;;;;;;;;;12.80;66.67;101398.84;4414856;32;20404;-69
2022/05/03 04:17:38;;;;;;;;;;;;;;;12.81;66.63;101403.25;4415621;32;19957;-68
2022/05/03 04:20:03;;;;;;;;;;;;;;;12.60;65.91;101397.25;4400188;32;20052;-68
2022/05/03 04:25:05;;;;;;;;;;;;;;;12.77;67.34;101404.56;3950359;32;15723410;-68
2022/05/03 04:27:31;;;;;;;;;;;;;;;12.65;67.09;101391.91;4426955;32;19957;-68
2022/05/03 04:29:58;;;;;;;;;;;;;;;12.63;68.61;101391.53;4430466;32;19991;-68
2022/05/03 04:32:26;;;;;;;;;;;;;;;12.81;68.06;101391.94;4425188;32;20069;-67
2022/05/03 04:34:52;;;;;;;;;;;;;;;12.95;68.57;101385.19;4431126;32;20715;-67
2022/05/03 04:37:18;;;;;;;;;;;;;;;12.99;67.85;101398.00;4429433;32;19988;-67
2022/05/03 04:39:44;;;;;;;;;;;;;;;13.05;67.86;101390.59;4426481;32;19982;-67
2022/05/03 04:42:10;;;;;;;;;;;;;;;12.99;69.09;101388.69;4427925;32;19953;-67
2022/05/03 04:44:36;;;;;;;;;;;;;;;13.01;68.44;101394.75;4427976;32;19958;-68
2022/05/03 04:47:02;;;;;;;;;;;;;;;12.98;67.96;101389.94;4427685;32;20130;-67
2022/05/03 04:49:28;;;;;;;;;;;;;;;13.01;68.81;101395.53;4427377;32;20042;-67
2022/05/03 04:51:54;;;;;;;;;;;;;;;13.03;69.26;101398.72;4426588;32;19961;-68
2022/05/03 04:54:20;;;;;;;;;;;;;;;13.08;68.18;101398.22;4428044;32;20000;-68
2022/05/03 04:56:49;;;;;;;;;;;;;;;12.86;69.64;101399.09;4428325;32;20016;-67
2022/05/03 04:59:14;;;;;;;;;;;;;;;12.97;67.99;101400.44;4429636;32;19957;-67
2022/05/03 05:01:40;;;;;;;;;;;;;;;13.03;68.33;101404.38;4427392;32;19988;-67
2022/05/03 05:04:05;;;;;;;;;;;;;;;13.16;67.85;101413.75;4428264;32;19964;-67
2022/05/03 05:06:31;;;;;;;;;;;;;;;13.13;66.58;101402.53;4428909;32;19985;-67
2022/05/03 05:08:56;;;;;;;;;;;;;;;13.23;67.20;101407.91;4426790;32;20392;-67
2022/05/03 05:11:22;;;;;;;;;;;;;;;13.07;65.70;101409.94;4427114;32;20369;-67
2022/05/03 05:13:48;;;;;;;;;;;;;;;13.08;66.72;101411.53;4428289;32;20639;-67
2022/05/03 05:16:14;;;;;;;;;;;;;;;12.97;67.61;101408.12;4429571;32;20009;-67
2022/05/03 05:18:39;;;;;;;;;;;;;;;13.04;67.45;101413.66;4430133;32;20030;-67
2022/05/03 05:21:05;;;;;;;;;;;;;;;13.17;66.90;101406.87;4429513;32;19985;-67
2022/05/03 05:23:30;;;;;;;;;;;;;;;13.28;66.72;101409.41;4429896;32;19958;-67
2022/05/03 05:25:56;;;;;;;;;;;;;;;13.37;66.59;101410.41;4431495;32;20019;-68
2022/05/03 05:28:22;;;;;;;;;;;;;;;13.41;65.34;101416.75;4429965;32;20019;-67
2022/05/03 05:30:51;;;;;;;;;;;;;;;13.54;66.14;101419.69;4430625;32;20247;-68
2022/05/03 05:33:17;;;;;;;;;;;;;;;13.71;65.30;101418.41;4428354;32;20000;-68
2022/05/03 05:35:43;;;;;;;;;;;;;;;13.81;65.16;101418.12;4423055;32;19949;-67
2022/05/03 05:38:09;;;;;;;;;;;;;;;13.88;65.54;101417.16;4417535;32;19981;-67
2022/05/03 05:40:35;;;;;;;;;;;;;;;14.06;64.83;101421.09;4415726;32;20004;-67
2022/05/03 05:43:01;;;;;;;;;;;;;;;14.08;64.01;101418.62;4415641;32;19965;-67
2022/05/03 05:45:28;;;;;;;;;;;;;;;14.16;64.07;101421.25;4418693;32;20008;-67
2022/05/03 05:47:54;;;;;;;;;;;;;;;14.14;64.32;101424.53;4415455;32;20027;-67
2022/05/03 05:50:20;;;;;;;;;;;;;;;13.65;64.16;101343.81;4415646;32;19989;-67
2022/05/03 05:55:31;;;;;;;;;;;;;;;14.18;63.97;101433.72;4414931;32;20280;-67
2022/05/03 05:57:56;;;;;;;;;;;;;;;14.25;63.96;101432.75;4417012;32;20393;-67
2022/05/03 06:00:22;;;;;;;;;;;;;;;14.26;63.22;101431.53;4417277;32;19977;-67
2022/05/03 06:02:48;;;;;;;;;;;;;;;14.57;61.93;101427.75;4413260;32;19997;-68
2022/05/03 06:05:14;;;;;;;;;;;;;;;14.27;62.30;101430.28;4402750;32;19977;-68
2022/05/03 06:07:39;;;;;;;;;;;;;;;14.41;63.42;101427.81;4418546;32;20104;-68
2022/05/03 06:10:05;;;;;;;;;;;;;;;14.46;63.48;101427.28;4414999;32;19993;-68
2022/05/03 06:12:31;;;;;;;;;;;;;;;14.37;63.28;101429.97;4416325;32;19969;-68
2022/05/03 06:14:56;;;;;;;;;;;;;;;14.34;62.18;101427.22;4417038;32;20342;-68
2022/05/03 06:17:22;;;;;;;;;;;;;;;14.52;63.28;101424.69;4415639;32;20005;-68
2022/05/03 06:19:47;;;;;;;;;;;;;;;14.58;63.04;101434.22;4417933;32;19953;-68
2022/05/03 06:22:13;;;;;;;;;;;;;;;14.72;62.96;101431.75;4415758;32;19961;-68
2022/05/03 06:24:39;;;;;;;;;;;;;;;14.77;62.03;101427.56;4417965;32;19981;-68
2022/05/03 06:27:05;;;;;;;;;;;;;;;14.96;61.27;101429.41;4413700;32;20393;-68
2022/05/03 06:29:32;;;;;;;;;;;;;;;14.65;62.51;101422.69;4418014;32;20386;-68
2022/05/03 06:31:59;;;;;;;;;;;;;;;14.98;61.20;101429.75;4413464;32;20323;-68
2022/05/03 06:34:25;;;;;;;;;;;;;;;15.21;60.38;101427.38;4415588;32;19981;-68
2022/05/03 06:36:51;;;;;;;;;;;;;;;15.36;60.16;101428.50;4411183;32;20325;-68
2022/05/03 06:39:17;;;;;;;;;;;;;;;15.44;59.51;101429.87;4410361;32;19961;-68
2022/05/03 06:41:43;;;;;;;;;;;;;;;15.60;59.57;101426.13;4410987;32;20011;-70
2022/05/03 06:44:08;;;;;;;;;;;;;;;15.61;59.79;101419.19;4412213;32;20393;-70
2022/05/03 06:46:34;;;;;;;;;;;;;;;15.73;58.72;101424.84;4408204;32;20056;-69
2022/05/03 06:49:00;;;;;;;;;;;;;;;15.57;58.95;101427.03;4409689;32;20096;-69
2022/05/03 06:51:26;;;;;;;;;;;;;;;15.64;59.62;101429.63;4411070;32;20367;-69
2022/05/03 06:53:52;;;;;;;;;;;;;;;15.74;58.76;101443.47;4410883;32;19985;-69
2022/05/03 06:56:17;;;;;;;;;;;;;;;15.82;57.75;101438.34;4412671;32;19988;-69
2022/05/03 06:58:43;;;;;;;;;;;;;;;15.87;57.67;101443.44;4410681;32;19981;-68
2022/05/03 07:01:09;;;;;;;;;;;;;;;15.92;57.30;101431.50;4410385;32;19988;-69
2022/05/03 07:03:38;;;;;;;;;;;;;;;15.94;57.02;101443.19;4411644;32;19974;-70
2022/05/03 07:06:04;;;;;;;;;;;;;;;15.74;57.27;101443.47;4410394;32;20038;-70
2022/05/03 07:08:30;;;;;;;;;;;;;;;15.98;56.33;101443.84;4404711;32;21624;-70
2022/05/03 07:10:56;;;;;;;;;;;;;;;15.92;56.87;101442.84;4408859;32;19973;-70
2022/05/03 07:13:23;;;;;;;;;;;;;;;15.76;56.00;101440.97;4409673;32;20166;-71
2022/05/03 07:15:51;;;;;;;;;;;;;;;15.50;56.52;101436.56;4405863;32;20448;-70
2022/05/03 07:23:47;;;;;;;;;;;;;;;15.42;56.75;101442.94;4404834;32;19972;-71
2022/05/03 07:26:13;;;;;;;;;;;;;;;15.55;56.84;101446.56;4408161;32;20001;-69
2022/05/03 07:28:39;;;;;;;;;;;;;;;15.59;56.20;101448.03;4408131;32;20009;-69
2022/05/03 07:31:05;;;;;;;;;;;;;;;15.79;55.94;101450.59;4409841;32;20000;-69
2022/05/03 07:33:31;;;;;;;;;;;;;;;16.02;55.56;101445.31;4408573;32;19980;-69
2022/05/03 07:35:57;;;;;;;;;;;;;;;16.14;55.39;101446.53;4412478;32;19966;-69
2022/05/03 07:38:22;;;;;;;;;;;;;;;16.28;54.81;101451.72;4409341;32;20469;-70
2022/05/03 07:40:48;;;;;;;;;;;;;;;16.35;53.73;101451.44;4394365;32;19988;-70
2022/05/03 07:43:14;;;;;;;;;;;;;;;16.54;53.00;101449.56;4408231;32;19997;-70
2022/05/03 07:45:40;;;;;;;;;;;;;;;17.07;52.71;101454.81;4410851;32;20001;-71
2022/05/03 07:48:06;;;;;;;;;;;;;;;16.89;53.26;101457.56;4411326;32;20091;-70
2022/05/03 07:50:32;;;;;;;;;;;;;;;17.23;51.61;101456.63;4395171;32;19997;-71
2022/05/03 07:52:57;;;;;;;;;;;;;;;17.12;50.13;101453.41;4403490;32;20335;-70
2022/05/03 07:55:23;;;;;;;;;;;;;;;17.32;50.47;101456.66;4400296;32;19993;-71
2022/05/03 07:57:49;;;;;;;;;;;;;;;17.20;50.56;101455.50;4407743;32;20544;-71
2022/05/03 08:00:15;;;;;;;;;;;;;;;16.96;51.95;101454.41;4410331;32;20011;-71
2022/05/03 08:02:41;;;;;;;;;;;;;;;16.93;52.00;101452.50;4411057;32;20345;-71
2022/05/03 08:05:08;;;;;;;;;;;;;;;16.89;51.85;101449.03;4410464;32;20287;-70
2022/05/03 08:07:35;;;;;;;;;;;;;;;16.73;51.14;101452.09;4407536;32;20009;-70
2022/05/03 08:10:01;;;;;;;;;;;;;;;16.76;51.74;101456.84;4411345;32;19974;-71
2022/05/03 08:12:27;;;;;;;;;;;;;;;17.02;52.25;101457.44;4409695;32;20363;-70
2022/05/03 08:14:53;;;;;;;;;;;;;;;16.95;49.49;101454.88;4399886;32;20404;-72
2022/05/03 08:17:19;;;;;;;;;;;;;;;17.15;50.63;101455.31;4410420;32;20403;-71
2022/05/03 08:19:45;;;;;;;;;;;;;;;17.32;49.45;101460.31;4409536;32;19949;-71
2022/05/03 08:22:11;;;;;;;;;;;;;;;17.12;50.37;101451.34;4407441;32;19976;-72
2022/05/03 08:24:37;;;;;;;;;;;;;;;17.25;49.80;101454.09;4408785;32;20023;-71
2022/05/03 08:27:04;;;;;;;;;;;;;;;17.00;49.97;101451.44;4408493;32;20017;-71
2022/05/03 08:29:31;;;;;;;;;;;;;;;17.12;49.83;101447.72;4409857;32;19985;-71
2022/05/03 08:31:58;;;;;;;;;;;;;;;17.25;49.64;101451.25;4394515;32;20518;-71
2022/05/03 08:34:24;;;;;;;;;;;;;;;17.12;49.67;101456.25;4407621;32;19999;-71
2022/05/03 08:42:21;;;;;;;;;;;;;;;16.60;50.07;101459.09;4396871;32;19981;-72
2022/05/03 08:44:46;;;;;;;;;;;;;;;16.96;50.50;101453.63;4393991;32;20277;-71
2022/05/03 08:47:14;;;;;;;;;;;;;;;17.35;49.04;101453.69;4402301;32;19957;-71
2022/05/03 08:52:16;;;;;;;;;;;;;;;18.40;47.42;101458.97;3821058;32;19839593;-72
2022/05/03 08:54:42;;;;;;;;;;;;;;;18.40;47.42;101458.97;4425929;32;20016;-72
2022/05/03 08:57:08;;;;;;;;;;;;;;;18.18;47.96;101447.72;4424668;32;20008;-72
2022/05/03 08:59:35;;;;;;;;;;;;;;;18.41;47.05;101443.47;4425045;32;20007;-72
2022/05/03 09:02:00;;;;;;;;;;;;;;;18.68;46.33;101440.63;4423666;32;20065;-71
2022/05/03 09:04:26;;;;;;;;;;;;;;;18.82;45.63;101443.59;4423391;32;20286;-71
2022/05/03 09:06:51;;;;;;;;;;;;;;;18.99;45.70;101444.78;4424080;32;19993;-71
2022/05/03 09:09:19;;;;;;;;;;;;;;;19.20;45.66;101443.78;4424468;32;19965;-70
2022/05/03 09:11:47;;;;;;;;;;;;;;;19.42;45.03;101446.44;4425221;32;19983;-70
2022/05/03 09:14:33;;;;;;;;;;;;;;;18.96;46.44;101450.69;4423726;32;19962;-72
2022/05/03 09:16:58;;;;;;;;;;;;;;;18.97;46.21;101443.69;4422403;32;20393;-70
2022/05/03 09:19:25;;;;;;;;;;;;;;;19.08;46.52;101447.63;4429000;32;19957;-71
2022/05/03 09:24:52;;;;;;;;;;;;;;;18.68;47.38;101449.94;4426468;32;20390;-70
2022/05/03 09:27:19;;;;;;;;;;;;;;;18.87;46.79;101440.06;4421047;32;20019;-70
2022/05/03 09:32:38;;;;;;;;;;;;;;;18.82;46.86;101439.94;3962282;31;15717020;-70
2022/05/03 09:35:05;;;;;;;;;;;;;;;18.82;46.86;101439.94;4432879;32;19996;-70
2022/05/03 09:37:47;;;;;;;;;;;;;;;18.60;46.72;101439.34;4428954;32;20228;-71
2022/05/03 09:40:16;;;;;;;;;;;;;;;18.63;46.59;101429.84;4433366;32;19956;-70
2022/05/03 09:42:51;;;;;;;;;;;;;;;18.69;45.67;101436.47;4430167;32;20117;-71
2022/05/03 09:45:20;;;;;;;;;;;;;;;19.01;44.75;101435.75;4429729;32;20255;-71
2022/05/03 09:47:51;;;;;;;;;;;;;;;19.04;44.67;101440.50;4433272;32;19957;-71
2022/05/03 09:53:26;;;;;;;;;;;;;;;19.36;43.89;101446.28;3945847;32;15723409;-71
2022/05/03 09:55:52;;;;;;;;;;;;;;;19.36;43.89;101446.28;4424181;32;20025;-70
2022/05/03 09:58:19;;;;;;;;;;;;;;;19.14;42.97;101433.50;4426684;32;20016;-70
2022/05/03 10:00:46;;;;;;;;;;;;;;;19.07;43.45;101433.84;4422764;32;19976;-71
2022/05/03 10:03:12;;;;;;;;;;;;;;;18.94;43.98;101439.75;4422293;32;20021;-72
2022/05/03 10:05:38;;;;;;;;;;;;;;;19.10;42.34;101433.69;4425809;32;19961;-70
2022/05/03 10:08:05;;;;;;;;;;;;;;;19.02;43.73;101443.06;4426887;32;20019;-70
2022/05/03 10:10:31;;;;;;;;;;;;;;;19.06;43.07;101437.97;4423400;32;19995;-70
2022/05/03 10:12:58;;;;;;;;;;;;;;;19.17;42.82;101439.03;4421996;32;20001;-70
2022/05/03 10:21:02;;;;;;;;;;;;;;;19.05;42.73;101434.31;4422487;32;20377;-70
2022/05/03 10:23:32;;;;;;;;;;;;;;;19.00;43.57;101429.28;4421949;32;20423;-70
2022/05/03 10:28:53;;;;;;;;;;;;;;;19.35;43.01;101427.56;3951029;32;15722533;-71
2022/05/03 10:31:20;;;;;;;;;;;;;;;19.00;42.87;101435.00;4422010;32;20016;-71
2022/05/03 10:33:46;;;;;;;;;;;;;;;19.08;44.06;101424.78;4424656;32;19983;-71
2022/05/03 10:36:32;;;;;;;;;;;;;;;18.96;43.88;101434.34;4416088;32;19961;-70
2022/05/03 10:39:17;;;;;;;;;;;;;;;19.31;42.95;101431.88;4423586;32;20041;-71
2022/05/03 10:41:59;;;;;;;;;;;;;;;19.46;42.39;101430.69;4430002;32;20000;-70
2022/05/03 10:44:41;;;;;;;;;;;;;;;19.43;42.77;101430.88;4416485;32;19997;-70
2022/05/03 10:47:08;;;;;;;;;;;;;;;19.67;42.10;101428.84;4430572;32;20001;-69
2022/05/03 10:49:34;;;;;;;;;;;;;;;19.89;41.82;101426.47;4429515;32;20037;-68
2022/05/03 10:52:13;;;;;;;;;;;;;;;19.66;42.84;101425.19;4421062;32;20020;-70
2022/05/03 10:54:59;;;;;;;;;;;;;;;19.36;41.99;101434.09;4426000;32;20427;-70
2022/05/03 10:57:25;;;;;;;;;;;;;;;19.18;42.46;101431.28;4427057;32;20005;-70
2022/05/03 10:59:50;;;;;;;;;;;;;;;19.09;42.81;101425.59;4421710;32;19973;-70
2022/05/03 11:02:19;;;;;;;;;;;;;;;18.97;42.69;101423.72;4423494;32;20016;-70
2022/05/03 11:05:05;;;;;;;;;;;;;;;18.99;43.88;101426.91;4413794;32;20016;-70
2022/05/03 11:07:30;;;;;;;;;;;;;;;18.80;44.03;101425.34;4422880;32;19969;-70
2022/05/03 11:10:16;;;;;;;;;;;;;;;19.01;43.99;101425.16;4422511;32;19961;-70
2022/05/03 11:12:50;;;;;;;;;;;;;;;19.03;43.51;101430.37;4423441;32;19976;-70
2022/05/03 11:15:15;;;;;;;;;;;;;;;18.92;43.27;101425.16;4421651;32;20001;-71
2022/05/03 11:17:42;;;;;;;;;;;;;;;18.96;43.09;101428.62;4427310;32;20040;-69
2022/05/03 11:20:08;;;;;;;;;;;;;;;19.20;43.79;101417.28;4423550;32;19997;-69
2022/05/03 11:22:35;;;;;;;;;;;;;;;19.69;43.08;101423.41;4413623;32;19965;-69
2022/05/03 11:25:04;;;;;;;;;;;;;;;19.50;42.60;101416.25;4427819;32;20028;-69
2022/05/03 11:27:31;;;;;;;;;;;;;;;19.46;42.86;101419.25;4421134;32;20391;-70
2022/05/03 11:32:33;;;;;;;;;;;;;;;20.39;41.65;101410.37;3946480;32;15726415;-70
2022/05/03 11:35:01;;;;;;;;;;;;;;;20.39;41.65;101410.37;4421207;32;20628;-70
2022/05/03 11:37:26;;;;;;;;;;;;;;;19.83;42.03;101400.63;4407825;32;19964;-71
2022/05/03 11:39:52;;;;;;;;;;;;;;;19.83;41.66;101406.34;4419996;32;19957;-70
2022/05/03 11:42:21;;;;;;;;;;;;;;;19.83;42.00;101399.06;4421417;32;20000;-70
2022/05/03 11:44:46;;;;;;;;;;;;;;;19.61;42.34;101393.66;4419571;32;20011;-71
2022/05/03 11:47:13;;;;;;;;;;;;;;;19.62;42.88;101398.88;4414182;32;20339;-71
2022/05/03 11:49:39;;;;;;;;;;;;;;;19.60;42.75;101397.78;4423430;32;20009;-70
2022/05/03 11:57:40;;;;;;;;;;;;;;;19.44;43.68;101406.75;4418752;32;20424;-70
2022/05/03 12:00:07;;;;;;;;;;;;;;;19.59;44.20;101394.16;4421636;32;20021;-70
2022/05/03 12:02:34;;;;;;;;;;;;;;;19.57;44.17;101395.87;4419771;32;20498;-70
2022/05/03 12:07:48;;;;;;;;;;;;;;;19.73;43.69;101393.41;3947344;32;15723469;-71
2022/05/03 12:13:12;;;;;;;;;;;;;;;20.03;43.37;101400.00;3948625;32;15724415;-71
2022/05/03 12:15:39;;;;;;;;;;;;;;;20.03;43.37;101400.00;4427155;32;20375;-71
2022/05/03 12:20:46;;;;;;;;;;;;;;;20.38;42.03;101383.88;3954093;31;15718112;-71
2022/05/03 12:25:52;;;;;;;;;;;;;;;20.02;42.56;101387.00;3947235;32;15727529;-71
2022/05/03 12:28:19;;;;;;;;;;;;;;;19.97;41.97;101387.69;4422132;32;20054;-71
2022/05/03 12:30:54;;;;;;;;;;;;;;;20.03;41.83;101374.28;4423020;32;20424;-71
2022/05/03 12:33:25;;;;;;;;;;;;;;;20.24;42.30;101381.78;4418647;32;20007;-70
2022/05/03 12:35:51;;;;;;;;;;;;;;;20.22;42.30;101384.31;4418412;32;19994;-71
2022/05/03 12:38:18;;;;;;;;;;;;;;;20.30;42.34;101371.22;4420461;32;20032;-71
2022/05/03 12:40:47;;;;;;;;;;;;;;;20.30;41.79;101379.81;4423637;32;20651;-72
2022/05/03 12:43:17;;;;;;;;;;;;;;;20.75;41.18;101367.91;4423439;32;19961;-72
2022/05/03 12:45:54;;;;;;;;;;;;;;;21.16;40.45;101363.94;4423069;32;19977;-71
2022/05/03 12:48:20;;;;;;;;;;;;;;;21.41;40.38;101356.75;4424769;32;20033;-73
2022/05/03 12:50:46;;;;;;;;;;;;;;;21.81;38.89;101356.03;4425505;32;19983;-72
2022/05/03 12:53:13;;;;;;;;;;;;;;;21.85;38.71;101348.00;4420473;32;19966;-72
2022/05/03 12:55:39;;;;;;;;;;;;;;;22.10;38.47;101350.91;4409133;32;19973;-72
2022/05/03 12:58:36;;;;;;;;;;;;;;;21.95;38.79;101350.22;4427531;32;19961;-72
2022/05/03 13:03:27;;;;;;;;;;;;;;;22.52;37.66;101336.78;3949685;32;15724407;-71
2022/05/03 13:05:54;;;;;;;;;;;;;;;22.52;37.66;101336.78;4438092;32;19996;-71
2022/05/03 13:08:19;;;;;;;;;;;;;;;22.50;37.70;101341.44;4434211;32;19980;-72
2022/05/03 13:10:45;;;;;;;;;;;;;;;22.48;37.79;101332.53;4435571;32;19965;-72
2022/05/03 13:13:12;;;;;;;;;;;;;;;22.50;37.94;101341.44;4438831;32;20419;-72
2022/05/03 13:15:39;;;;;;;;;;;;;;;22.04;38.25;101334.94;4436642;32;19971;-71
2022/05/03 13:18:04;;;;;;;;;;;;;;;21.99;38.30;101332.81;4433423;32;20064;-71
2022/05/03 13:20:30;;;;;;;;;;;;;;;21.61;39.34;101334.66;4432305;32;20341;-70
2022/05/03 13:22:57;;;;;;;;;;;;;;;21.66;39.37;101328.19;4430728;32;20028;-72
2022/05/03 13:25:23;;;;;;;;;;;;;;;21.70;39.51;101331.63;4430715;32;20485;-72
2022/05/03 13:27:49;;;;;;;;;;;;;;;21.70;39.23;101331.63;4430184;32;20044;-71
2022/05/03 13:30:15;;;;;;;;;;;;;;;21.62;39.59;101332.56;4430973;32;20001;-71
2022/05/03 13:32:42;;;;;;;;;;;;;;;21.20;40.14;101332.25;4429270;32;20664;-71
2022/05/03 13:35:08;;;;;;;;;;;;;;;20.84;40.77;101329.81;4428073;32;20000;-73
2022/05/03 13:40:34;;;;;;;;;;;;;;;20.52;41.71;101328.75;4429340;32;20944;-72
2022/05/03 13:43:01;;;;;;;;;;;;;;;20.88;41.67;101321.81;4427586;32;20012;-72
2022/05/03 13:45:28;;;;;;;;;;;;;;;21.29;40.42;101320.63;4425462;32;20078;-72
2022/05/03 13:47:53;;;;;;;;;;;;;;;21.31;40.48;101320.94;4428291;32;19991;-72
2022/05/03 13:50:19;;;;;;;;;;;;;;;21.18;40.30;101327.03;4430981;32;19969;-72
2022/05/03 13:52:45;;;;;;;;;;;;;;;21.02;40.78;101312.44;4429156;32;20045;-71
2022/05/03 13:55:11;;;;;;;;;;;;;;;20.84;41.22;101319.16;4426625;32;20030;-71
2022/05/03 13:57:36;;;;;;;;;;;;;;;20.89;41.39;101309.09;4429194;32;20033;-72
2022/05/03 14:00:04;;;;;;;;;;;;;;;20.93;41.59;101313.31;4429242;32;20061;-72
2022/05/03 14:02:30;;;;;;;;;;;;;;;20.74;41.60;101306.25;4427369;32;19997;-71
2022/05/03 14:04:55;;;;;;;;;;;;;;;20.84;41.73;101310.59;4427135;32;20029;-71
2022/05/03 14:07:21;;;;;;;;;;;;;;;20.79;41.15;101304.75;4426638;32;20016;-71
2022/05/03 14:09:47;;;;;;;;;;;;;;;21.01;40.80;101308.00;4430199;32;19984;-70
2022/05/03 14:12:13;;;;;;;;;;;;;;;20.81;40.91;101303.00;4429254;32;19966;-70
2022/05/03 14:14:39;;;;;;;;;;;;;;;21.05;40.48;101289.31;4419856;32;20017;-70
2022/05/03 14:17:05;;;;;;;;;;;;;;;21.17;40.69;101293.94;4421584;32;19961;-70
2022/05/03 14:19:30;;;;;;;;;;;;;;;21.06;40.83;101290.94;4422860;32;20034;-70
2022/05/03 14:21:56;;;;;;;;;;;;;;;21.01;40.82;101279.38;4419355;32;20436;-70
2022/05/03 14:24:22;;;;;;;;;;;;;;;21.36;40.50;101291.59;4421488;32;19981;-69
2022/05/03 14:26:51;;;;;;;;;;;;;;;21.49;40.51;101289.97;4420399;32;20022;-70
2022/05/03 14:29:16;;;;;;;;;;;;;;;21.84;39.69;101289.12;4406666;32;19972;-71
2022/05/03 14:31:43;;;;;;;;;;;;;;;22.12;39.15;101284.47;4418690;32;19969;-70